createdAt,value
2023-04-30T00:02:01.374Z,15.50
2023-04-30T00:04:27.945Z,10.95
2023-04-30T00:06:54.387Z,11.75
2023-04-30T00:09:20.789Z,13.07
2023-04-30T00:11:47.362Z,14.63
2023-04-30T00:14:15.707Z,16.33
2023-04-30T00:16:42.090Z,11.45
2023-04-30T00:19:09.273Z,11.68
2023-04-30T00:21:37.262Z,13.40
2023-04-30T00:24:04.162Z,11.05
2023-04-30T00:26:30.579Z,12.85
2023-04-30T00:28:57.038Z,12.20
2023-04-30T00:31:23.478Z,10.23
2023-04-30T00:33:50.756Z,12.13
2023-04-30T00:36:17.058Z,12.45
2023-04-30T00:38:43.493Z,11.25
2023-04-30T00:41:11.581Z,13.98
2023-04-30T00:43:39.587Z,12.13
2023-04-30T00:46:06.769Z,12.50
2023-04-30T00:48:36.099Z,12.85
2023-04-30T00:51:04.136Z,14.73
2023-04-30T00:53:31.792Z,13.32
2023-04-30T00:55:59.178Z,11.70
2023-04-30T00:58:26.668Z,12.15
2023-04-30T01:00:53.361Z,11.02
2023-04-30T01:03:20.492Z,14.23
2023-04-30T01:05:46.951Z,11.57
2023-04-30T01:08:13.627Z,12.65
2023-04-30T01:10:56.338Z,13.50
2023-04-30T01:13:27.284Z,14.40
2023-04-30T01:16:03.947Z,11.75
2023-04-30T01:19:09.522Z,13.90
2023-04-30T01:21:41.460Z,12.05
2023-04-30T01:24:14.113Z,13.13
2023-04-30T01:26:59.069Z,13.90
2023-04-30T01:29:27.313Z,13.10
2023-04-30T01:31:53.704Z,13.13
2023-04-30T01:34:20.174Z,12.23
2023-04-30T01:37:05.182Z,11.60
2023-04-30T01:39:56.650Z,15.95
2023-04-30T01:42:33.486Z,14.32
2023-04-30T01:45:28.718Z,14.27
2023-04-30T01:48:27.974Z,13.40
2023-04-30T01:51:22.155Z,12.82
2023-04-30T01:53:49.226Z,13.93
2023-04-30T01:56:25.882Z,11.50
2023-04-30T01:58:53.586Z,16.08
2023-04-30T02:01:27.710Z,14.27
2023-04-30T02:03:54.622Z,12.13
2023-04-30T02:06:21.416Z,11.48
2023-04-30T02:08:49.256Z,13.32
2023-04-30T02:11:16.238Z,15.45
2023-04-30T02:13:42.846Z,12.45
2023-04-30T02:16:09.460Z,15.38
2023-04-30T02:18:36.434Z,13.77
2023-04-30T02:21:02.778Z,11.85
2023-04-30T02:23:29.462Z,12.85
2023-04-30T02:25:55.806Z,13.88
2023-04-30T02:28:22.261Z,11.65
2023-04-30T02:30:48.670Z,11.40
2023-04-30T02:33:15.061Z,13.63
2023-04-30T02:35:41.684Z,18.48
2023-04-30T02:38:08.053Z,12.32
2023-04-30T02:40:34.400Z,11.98
2023-04-30T02:43:01.467Z,14.10
2023-04-30T02:45:27.851Z,13.40
2023-04-30T02:47:54.545Z,17.92
2023-04-30T02:50:20.941Z,16.65
2023-04-30T02:52:47.335Z,14.88
2023-04-30T02:55:13.784Z,13.55
2023-04-30T02:57:40.513Z,12.65
2023-04-30T03:00:07.718Z,12.20
2023-04-30T03:02:34.257Z,13.40
2023-04-30T03:05:00.692Z,14.75
2023-04-30T03:07:27.077Z,16.67
2023-04-30T03:09:53.755Z,16.60
2023-04-30T03:12:20.387Z,23.75
2023-04-30T03:14:46.806Z,12.70
2023-04-30T03:17:13.439Z,15.15
2023-04-30T03:19:39.839Z,14.68
2023-04-30T03:22:06.208Z,11.48
2023-04-30T03:24:32.585Z,14.50
2023-04-30T03:26:59.324Z,15.98
2023-04-30T03:29:25.645Z,13.05
2023-04-30T03:31:52.628Z,12.68
2023-04-30T03:34:19.184Z,12.68
2023-04-30T03:36:45.496Z,13.43
2023-04-30T03:39:12.212Z,16.98
2023-04-30T03:41:38.595Z,13.73
2023-04-30T03:44:05.508Z,12.43
2023-04-30T03:46:31.942Z,11.70
2023-04-30T03:48:58.349Z,12.73
2023-04-30T03:51:24.782Z,12.95
2023-04-30T03:53:51.432Z,13.32
2023-04-30T03:56:17.783Z,11.77
2023-04-30T03:58:44.385Z,13.60
2023-04-30T04:01:10.993Z,13.27
2023-04-30T04:03:37.571Z,16.88
2023-04-30T04:06:05.485Z,14.25
2023-04-30T04:08:32.814Z,12.48
2023-04-30T04:10:59.857Z,12.98
2023-04-30T04:13:26.212Z,13.50
2023-04-30T04:15:52.861Z,18.02
2023-04-30T04:18:19.350Z,13.80
2023-04-30T04:20:45.938Z,18.67
2023-04-30T04:23:12.412Z,15.18
2023-04-30T04:25:39.386Z,17.80
2023-04-30T04:28:05.939Z,14.82
2023-04-30T04:30:32.334Z,15.98
2023-04-30T04:32:58.968Z,14.07
2023-04-30T04:35:25.750Z,15.88
2023-04-30T04:37:52.338Z,18.65
2023-04-30T04:40:19.018Z,15.77
2023-04-30T04:42:45.400Z,16.77
2023-04-30T04:45:12.144Z,18.00
2023-04-30T04:47:38.921Z,15.65
2023-04-30T04:50:06.790Z,17.23
2023-04-30T04:52:33.345Z,18.08
2023-04-30T04:54:59.705Z,17.95
2023-04-30T04:57:26.403Z,17.40
2023-04-30T04:59:53.294Z,16.67
2023-04-30T05:02:20.141Z,22.42
2023-04-30T05:04:47.283Z,16.58
2023-04-30T05:07:13.679Z,15.65
2023-04-30T05:09:40.060Z,18.90
2023-04-30T05:12:06.802Z,18.20
2023-04-30T05:14:33.198Z,17.20
2023-04-30T05:16:59.589Z,16.63
2023-04-30T05:19:26.115Z,17.35
2023-04-30T05:21:52.692Z,18.38
2023-04-30T05:24:19.455Z,14.75
2023-04-30T05:26:46.087Z,16.02
2023-04-30T05:29:12.531Z,19.13
2023-04-30T05:31:40.156Z,16.83
2023-04-30T05:34:06.590Z,17.37
2023-04-30T05:36:32.941Z,16.77
2023-04-30T05:38:59.393Z,16.48
2023-04-30T05:41:25.863Z,17.23
2023-04-30T05:43:52.239Z,15.65
2023-04-30T05:46:18.806Z,18.17
2023-04-30T05:48:45.515Z,16.90
2023-04-30T05:51:11.823Z,14.55
2023-04-30T05:53:38.425Z,15.20
2023-04-30T05:56:04.901Z,15.52
2023-04-30T05:58:31.313Z,17.48
2023-04-30T06:00:59.177Z,15.93
2023-04-30T06:03:25.730Z,17.15
2023-04-30T06:05:52.443Z,12.93
2023-04-30T06:08:19.093Z,15.13
2023-04-30T06:10:45.633Z,13.23
2023-04-30T06:13:12.285Z,17.98
2023-04-30T06:15:38.889Z,16.63
2023-04-30T06:18:05.573Z,16.13
2023-04-30T06:20:32.306Z,15.20
2023-04-30T06:22:59.939Z,20.00
2023-04-30T06:25:26.452Z,15.13
2023-04-30T06:27:54.204Z,16.23
2023-04-30T06:30:21.188Z,17.30
2023-04-30T06:32:47.606Z,17.83
2023-04-30T06:35:14.369Z,22.05
2023-04-30T06:37:40.925Z,18.92
2023-04-30T06:40:08.040Z,18.55
2023-04-30T06:42:35.249Z,21.70
2023-04-30T06:45:02.658Z,24.58
2023-04-30T06:47:34.450Z,21.80
2023-04-30T06:50:01.539Z,18.35
2023-04-30T06:52:28.502Z,17.40
2023-04-30T06:54:54.883Z,20.00
2023-04-30T06:57:21.471Z,23.15
2023-04-30T06:59:48.218Z,20.63
2023-04-30T07:02:14.974Z,17.50
2023-04-30T07:04:41.346Z,20.55
2023-04-30T07:07:07.919Z,19.52
2023-04-30T07:09:34.212Z,21.98
2023-04-30T07:12:01.080Z,20.27
2023-04-30T07:14:27.664Z,19.48
2023-04-30T07:16:54.243Z,21.55
2023-04-30T07:19:20.870Z,19.40
2023-04-30T07:21:47.487Z,17.90
2023-04-30T07:24:13.841Z,17.58
2023-04-30T07:26:40.284Z,19.10
2023-04-30T07:29:06.665Z,18.33
2023-04-30T07:31:34.114Z,19.20
2023-04-30T07:34:00.614Z,18.90
2023-04-30T07:36:28.652Z,21.70
2023-04-30T07:38:55.054Z,17.77
2023-04-30T07:41:21.811Z,18.60
2023-04-30T07:43:48.202Z,19.88
2023-04-30T07:46:14.684Z,18.30
2023-04-30T07:48:41.186Z,17.85
2023-04-30T07:51:07.560Z,18.25
2023-04-30T07:53:34.088Z,14.98
2023-04-30T07:56:00.963Z,19.15
2023-04-30T07:58:27.334Z,17.67
2023-04-30T08:00:53.893Z,17.45
2023-04-30T08:03:20.475Z,16.50
2023-04-30T08:05:47.351Z,17.88
2023-04-30T08:08:13.712Z,15.63
2023-04-30T08:10:42.054Z,17.45
2023-04-30T08:13:08.429Z,12.45
2023-04-30T08:15:34.817Z,14.25
2023-04-30T08:18:02.588Z,17.45
2023-04-30T08:20:29.383Z,11.80
2023-04-30T08:22:55.974Z,14.07
2023-04-30T08:25:22.531Z,13.70
2023-04-30T08:27:48.915Z,12.38
2023-04-30T08:30:15.358Z,12.00
2023-04-30T08:32:41.954Z,14.18
2023-04-30T08:35:09.216Z,14.27
2023-04-30T08:37:35.738Z,13.90
2023-04-30T08:40:02.401Z,11.40
2023-04-30T08:42:35.175Z,9.70
2023-04-30T08:45:03.264Z,12.55
2023-04-30T08:47:30.498Z,14.00
2023-04-30T08:49:56.997Z,12.70
2023-04-30T08:52:25.163Z,14.82
2023-04-30T08:54:54.124Z,15.52
2023-04-30T08:57:20.779Z,11.07
2023-04-30T08:59:47.729Z,12.77
2023-04-30T09:02:14.457Z,13.25
2023-04-30T09:04:40.907Z,11.43
2023-04-30T09:07:09.462Z,10.50
2023-04-30T09:09:39.287Z,12.85
2023-04-30T09:12:18.870Z,8.45
2023-04-30T09:15:02.502Z,9.93
2023-04-30T09:17:30.249Z,9.23
2023-04-30T09:20:10.910Z,8.52
2023-04-30T09:22:39.475Z,8.52
2023-04-30T09:27:33.682Z,11.32
2023-04-30T09:30:01.104Z,11.15
2023-04-30T09:32:27.582Z,10.63
2023-04-30T09:34:55.190Z,9.70
2023-04-30T09:37:21.608Z,9.32
2023-04-30T09:39:55.248Z,11.80
2023-04-30T09:42:22.338Z,7.50
2023-04-30T09:44:48.984Z,9.68
2023-04-30T09:47:20.870Z,9.70
2023-04-30T09:49:48.366Z,9.43
2023-04-30T09:52:16.117Z,10.48
2023-04-30T09:54:44.108Z,8.90
2023-04-30T09:57:13.463Z,8.88
2023-04-30T09:59:44.086Z,9.15
2023-04-30T10:02:13.471Z,7.07
2023-04-30T10:04:44.544Z,10.57
2023-04-30T10:07:11.617Z,10.10
2023-04-30T10:09:43.227Z,7.55
2023-04-30T10:12:20.598Z,5.90
2023-04-30T10:14:55.545Z,8.75
2023-04-30T10:17:26.898Z,8.55
2023-04-30T10:20:01.199Z,10.35
2023-04-30T10:22:29.036Z,8.13
2023-04-30T10:24:55.832Z,13.32
2023-04-30T10:27:22.349Z,8.13
2023-04-30T10:29:52.194Z,8.77
2023-04-30T10:32:20.341Z,10.68
2023-04-30T10:35:35.370Z,10.50
2023-04-30T10:38:12.899Z,8.57
2023-04-30T10:40:39.564Z,9.23
2023-04-30T10:43:06.664Z,8.48
2023-04-30T10:45:38.140Z,12.43
2023-04-30T10:48:07.493Z,10.90
2023-04-30T10:50:40.766Z,13.32
2023-04-30T10:53:12.347Z,7.72
2023-04-30T10:55:59.733Z,9.57
2023-04-30T10:58:34.764Z,8.47
2023-04-30T11:01:15.939Z,12.50
2023-04-30T11:03:43.875Z,9.70
2023-04-30T11:06:15.068Z,11.70
2023-04-30T11:08:46.181Z,8.05
2023-04-30T11:11:20.954Z,11.10
2023-04-30T11:13:57.797Z,8.05
2023-04-30T11:16:30.781Z,11.60
2023-04-30T11:19:13.205Z,10.82
2023-04-30T11:22:04.413Z,11.73
2023-04-30T11:24:58.864Z,8.45
2023-04-30T11:27:30.460Z,7.65
2023-04-30T11:29:59.233Z,7.50
2023-04-30T11:32:33.852Z,9.80
2023-04-30T11:35:05.152Z,7.88
2023-04-30T11:37:36.484Z,9.38
2023-04-30T11:40:08.754Z,10.38
2023-04-30T11:42:35.255Z,10.07
2023-04-30T11:45:10.165Z,7.82
2023-04-30T11:47:50.422Z,9.45
2023-04-30T11:50:27.553Z,8.48
2023-04-30T11:52:54.913Z,10.48
2023-04-30T11:55:24.412Z,10.75
2023-04-30T11:57:54.550Z,11.57
2023-04-30T12:00:31.670Z,7.63
2023-04-30T12:03:01.285Z,9.77
2023-04-30T12:05:28.409Z,8.90
2023-04-30T12:08:01.142Z,8.00
2023-04-30T12:10:27.536Z,7.90
2023-04-30T12:12:54.811Z,8.40
2023-04-30T12:15:26.721Z,10.40
2023-04-30T12:17:57.814Z,7.05
2023-04-30T12:20:26.384Z,9.52
2023-04-30T12:25:21.272Z,6.85
2023-04-30T12:27:49.482Z,6.63
2023-04-30T12:30:20.141Z,8.25
2023-04-30T12:32:50.430Z,6.63
2023-04-30T12:35:19.020Z,7.10
2023-04-30T12:40:14.484Z,6.32
2023-04-30T12:42:44.101Z,7.47
2023-04-30T12:45:11.355Z,4.28
2023-04-30T12:47:42.368Z,5.38
2023-04-30T12:50:15.055Z,5.57
2023-04-30T12:52:41.447Z,7.45
2023-04-30T12:55:21.194Z,8.65
2023-04-30T12:58:09.237Z,6.45
2023-04-30T13:00:49.832Z,6.50
2023-04-30T13:03:19.173Z,7.95
2023-04-30T13:05:50.873Z,7.10
2023-04-30T13:08:18.806Z,4.75
2023-04-30T13:10:46.858Z,6.68
2023-04-30T13:13:15.536Z,5.97
2023-04-30T13:15:45.301Z,8.70
2023-04-30T13:18:12.219Z,5.18
2023-04-30T13:20:39.192Z,6.38
2023-04-30T13:23:06.622Z,7.13
2023-04-30T13:25:34.087Z,5.50
2023-04-30T13:28:00.584Z,6.28
2023-04-30T13:30:27.198Z,5.22
2023-04-30T13:32:54.320Z,6.60
2023-04-30T13:35:20.825Z,6.30
2023-04-30T13:37:52.356Z,5.57
2023-04-30T13:40:19.620Z,6.57
2023-04-30T13:42:47.624Z,6.75
2023-04-30T13:45:14.174Z,7.53
2023-04-30T13:47:41.017Z,6.13
2023-04-30T13:50:08.838Z,6.80
2023-04-30T13:52:35.248Z,6.60
2023-04-30T13:55:02.259Z,5.13
2023-04-30T13:57:29.972Z,8.73
2023-04-30T13:59:57.091Z,7.43
2023-04-30T14:02:23.999Z,7.72
2023-04-30T14:05:04.645Z,3.15
2023-04-30T14:07:32.864Z,4.95
2023-04-30T14:09:59.771Z,2.63
2023-04-30T14:12:26.265Z,4.60
2023-04-30T14:14:52.913Z,6.63
2023-04-30T14:17:19.533Z,5.18
2023-04-30T14:19:46.104Z,3.97
2023-04-30T14:22:12.542Z,3.78
2023-04-30T14:24:38.973Z,3.17
2023-04-30T14:27:06.039Z,10.05
2023-04-30T14:29:32.629Z,3.45
2023-04-30T14:31:59.061Z,5.15
2023-04-30T14:34:25.855Z,7.35
2023-04-30T14:36:52.338Z,7.57
2023-04-30T14:39:18.671Z,3.55
2023-04-30T14:41:45.128Z,3.65
2023-04-30T14:44:11.717Z,2.42
2023-04-30T14:46:38.300Z,3.85
2023-04-30T14:49:04.849Z,4.95
2023-04-30T14:51:32.417Z,5.05
2023-04-30T14:53:59.369Z,2.60
2023-04-30T14:56:25.834Z,2.65
2023-04-30T14:58:52.190Z,2.22
2023-04-30T15:01:18.884Z,5.40
2023-04-30T15:03:46.082Z,3.05
2023-04-30T15:06:13.919Z,5.63
2023-04-30T15:08:40.833Z,4.90
2023-04-30T15:11:09.681Z,3.85
2023-04-30T15:13:39.854Z,3.45
2023-04-30T15:16:07.009Z,2.88
2023-04-30T15:18:33.933Z,2.70
2023-04-30T15:21:00.812Z,2.72
2023-04-30T15:23:27.374Z,4.05
2023-04-30T15:25:53.797Z,5.85
2023-04-30T15:28:20.761Z,3.65
2023-04-30T15:30:47.081Z,4.20
2023-04-30T15:33:13.751Z,2.95
2023-04-30T15:35:40.640Z,1.63
2023-04-30T15:38:07.150Z,3.30
2023-04-30T15:40:33.924Z,1.92
2023-04-30T15:43:00.455Z,5.68
2023-04-30T15:45:27.970Z,4.32
2023-04-30T15:47:54.406Z,2.20
2023-04-30T15:50:22.289Z,4.13
2023-04-30T15:52:48.703Z,3.67
2023-04-30T15:55:15.074Z,1.65
2023-04-30T15:57:41.404Z,4.32
2023-04-30T16:00:08.970Z,4.85
2023-04-30T16:02:36.033Z,3.40
2023-04-30T16:05:02.515Z,5.20
2023-04-30T16:07:31.766Z,4.72
2023-04-30T16:09:59.997Z,3.60
2023-04-30T16:12:26.990Z,4.10
2023-04-30T16:14:53.912Z,4.93
2023-04-30T16:17:21.225Z,3.63
2023-04-30T16:19:47.552Z,2.80
2023-04-30T16:22:14.246Z,3.85
2023-04-30T16:24:41.249Z,4.15
2023-04-30T16:27:08.336Z,5.95
2023-04-30T16:29:34.713Z,3.63
2023-04-30T16:32:01.188Z,2.13
2023-04-30T16:34:27.848Z,4.35
2023-04-30T16:36:54.196Z,2.53
2023-04-30T16:39:20.540Z,4.63
2023-04-30T16:41:47.435Z,1.67
2023-04-30T16:44:13.773Z,2.08
2023-04-30T16:46:40.488Z,2.05
2023-04-30T16:49:07.000Z,5.20
2023-04-30T16:51:33.678Z,3.22
2023-04-30T16:54:00.001Z,6.25
2023-04-30T16:56:26.543Z,4.18
2023-04-30T16:58:52.929Z,2.50
2023-04-30T17:01:19.619Z,3.30
2023-04-30T17:03:46.675Z,4.00
2023-04-30T17:06:14.229Z,3.70
2023-04-30T17:08:41.111Z,2.28
2023-04-30T17:11:07.828Z,3.55
2023-04-30T17:13:34.257Z,4.47
2023-04-30T17:16:02.011Z,3.05
2023-04-30T17:18:28.486Z,2.67
2023-04-30T17:20:55.095Z,10.32
2023-04-30T17:23:21.657Z,4.55
2023-04-30T17:25:48.006Z,3.50
2023-04-30T17:28:14.302Z,1.92
2023-04-30T17:30:41.915Z,5.80
2023-04-30T17:33:08.625Z,4.53
2023-04-30T17:35:35.116Z,3.47
2023-04-30T17:38:03.867Z,2.83
2023-04-30T17:40:31.615Z,3.20
2023-04-30T17:42:58.195Z,6.75
2023-04-30T17:45:26.676Z,2.30
2023-04-30T17:47:53.236Z,3.97
2023-04-30T17:50:19.626Z,4.20
2023-04-30T17:52:46.874Z,3.53
2023-04-30T17:55:13.921Z,3.42
2023-04-30T17:57:40.520Z,4.03
2023-04-30T18:00:08.143Z,5.82
2023-04-30T18:02:34.626Z,2.73
2023-04-30T18:05:01.102Z,5.43
2023-04-30T18:07:27.742Z,3.22
2023-04-30T18:09:54.824Z,4.68
2023-04-30T18:12:21.560Z,5.10
2023-04-30T18:14:48.265Z,3.75
2023-04-30T18:17:15.442Z,6.63
2023-04-30T18:19:46.326Z,4.00
2023-04-30T18:22:12.807Z,5.25
2023-04-30T18:24:39.560Z,4.63
2023-04-30T18:27:06.906Z,5.72
2023-04-30T18:29:33.428Z,5.28
2023-04-30T18:31:59.923Z,4.30
2023-04-30T18:34:28.206Z,7.28
2023-04-30T18:36:55.167Z,4.25
2023-04-30T18:39:22.494Z,3.28
2023-04-30T18:41:49.428Z,5.68
2023-04-30T18:44:16.638Z,3.83
2023-04-30T18:46:43.082Z,4.78
2023-04-30T18:49:09.644Z,6.38
2023-04-30T18:51:36.033Z,4.70
2023-04-30T18:54:02.725Z,5.32
2023-04-30T18:56:29.226Z,3.75
2023-04-30T18:58:55.883Z,8.00
2023-04-30T19:01:24.600Z,4.40
2023-04-30T19:03:51.245Z,3.83
2023-04-30T19:06:18.091Z,4.43
2023-04-30T19:08:46.502Z,7.43
2023-04-30T19:11:14.019Z,10.65
2023-04-30T19:13:41.926Z,6.90
2023-04-30T19:16:08.536Z,5.00
2023-04-30T19:18:35.124Z,5.47
2023-04-30T19:21:02.438Z,7.80
2023-04-30T19:23:32.385Z,5.75
2023-04-30T19:26:00.200Z,8.10
2023-04-30T19:28:26.755Z,4.30
2023-04-30T19:30:54.522Z,7.68
2023-04-30T19:33:22.310Z,9.07
2023-04-30T19:35:50.324Z,4.77
2023-04-30T19:38:17.264Z,7.90
2023-04-30T19:40:52.026Z,4.60
2023-04-30T19:43:19.470Z,6.13
2023-04-30T19:45:54.192Z,4.50
2023-04-30T19:48:21.958Z,7.75
2023-04-30T19:50:49.581Z,5.38
2023-04-30T19:53:17.148Z,9.98
2023-04-30T19:55:43.911Z,8.53
2023-04-30T19:58:10.616Z,4.97
2023-04-30T20:00:38.483Z,12.73
2023-04-30T20:03:05.356Z,6.40
2023-04-30T20:05:32.245Z,9.63
2023-04-30T20:07:59.586Z,7.40
2023-04-30T20:10:26.020Z,6.25
2023-04-30T20:12:53.420Z,8.20
2023-04-30T20:15:21.569Z,7.43
2023-04-30T20:17:51.827Z,8.27
2023-04-30T20:20:19.989Z,7.85
2023-04-30T20:22:50.206Z,7.75
2023-04-30T20:25:16.821Z,10.60
2023-04-30T20:27:43.846Z,6.40
2023-04-30T20:30:12.233Z,7.35
2023-04-30T20:32:39.900Z,12.60
2023-04-30T20:35:07.628Z,7.50
2023-04-30T20:37:34.774Z,8.53
2023-04-30T20:40:01.683Z,8.98
2023-04-30T20:42:28.035Z,8.85
2023-04-30T20:44:55.205Z,7.13
2023-04-30T20:47:22.569Z,9.52
2023-04-30T20:49:48.972Z,7.43
2023-04-30T20:52:15.389Z,7.70
2023-04-30T20:54:41.936Z,8.48
2023-04-30T20:57:08.883Z,11.02
2023-04-30T20:59:36.029Z,9.52
2023-04-30T21:02:04.400Z,10.70
2023-04-30T21:04:31.199Z,7.15
2023-04-30T21:06:57.653Z,4.75
2023-04-30T21:09:23.976Z,7.13
2023-04-30T21:11:50.367Z,12.15
2023-04-30T21:14:17.739Z,8.32
2023-04-30T21:16:44.896Z,9.38
2023-04-30T21:19:11.425Z,8.77
2023-04-30T21:21:37.782Z,11.20
2023-04-30T21:24:05.119Z,8.20
2023-04-30T21:26:31.755Z,9.00
2023-04-30T21:28:58.107Z,8.10
2023-04-30T21:31:25.506Z,10.30
2023-04-30T21:33:52.117Z,8.80
2023-04-30T21:36:18.874Z,8.25
2023-04-30T21:38:45.264Z,8.70
2023-04-30T21:41:16.135Z,8.65
2023-04-30T21:43:43.560Z,12.80
2023-04-30T21:46:11.165Z,9.27
2023-04-30T21:48:38.359Z,8.27
2023-04-30T21:51:12.614Z,8.57
2023-04-30T21:53:39.434Z,9.23
2023-04-30T21:56:08.315Z,9.80
2023-04-30T21:58:35.616Z,7.40
2023-04-30T22:01:04.241Z,8.55
2023-04-30T22:03:34.884Z,9.63
2023-04-30T22:06:01.545Z,10.07
2023-04-30T22:08:28.221Z,12.63
2023-04-30T22:11:00.121Z,8.63
2023-04-30T22:13:29.552Z,7.38
2023-04-30T22:15:56.762Z,12.68
2023-04-30T22:18:24.294Z,8.50
2023-04-30T22:20:53.140Z,8.23
2023-04-30T22:23:21.169Z,10.55
2023-04-30T22:25:48.249Z,8.57
2023-04-30T22:28:19.287Z,6.82
2023-04-30T22:30:46.347Z,7.90
2023-04-30T22:33:12.789Z,6.97
2023-04-30T22:35:39.272Z,8.35
2023-04-30T22:38:07.162Z,8.77
2023-04-30T22:40:35.192Z,7.30
2023-04-30T22:43:02.228Z,10.73
2023-04-30T22:45:30.205Z,8.82
2023-04-30T22:47:59.480Z,9.48
2023-04-30T22:50:27.267Z,14.20
2023-04-30T22:52:54.478Z,11.60
2023-04-30T22:55:20.944Z,6.97
2023-04-30T22:57:47.517Z,8.43
2023-04-30T23:00:14.412Z,8.38
2023-04-30T23:02:40.816Z,10.32
2023-04-30T23:05:08.007Z,7.95
2023-04-30T23:07:34.363Z,11.15
2023-04-30T23:10:01.016Z,8.00
2023-04-30T23:12:27.770Z,6.32
2023-04-30T23:14:54.271Z,9.60
2023-04-30T23:17:20.904Z,9.88
2023-04-30T23:19:47.531Z,9.80
2023-04-30T23:22:13.886Z,10.00
2023-04-30T23:24:41.329Z,7.82
2023-04-30T23:27:08.306Z,12.70
2023-04-30T23:29:36.519Z,6.30
2023-04-30T23:32:04.283Z,11.57
2023-04-30T23:34:30.853Z,7.40
2023-04-30T23:36:57.719Z,9.90
2023-04-30T23:39:24.722Z,7.47
2023-04-30T23:41:53.624Z,10.40
2023-04-30T23:44:20.845Z,8.13
2023-04-30T23:46:48.053Z,12.05
2023-04-30T23:49:16.429Z,9.70
2023-04-30T23:51:42.869Z,8.00
2023-04-30T23:54:09.297Z,8.55
2023-04-30T23:56:37.417Z,10.60
2023-04-30T23:59:04.007Z,5.53
